sensor_id;sensor_type;location;lat;lon;timestamp;temperature;humidity
38500;DHT22;24269;51.894;4.622;2022-11-15T00:01:18;8.00;99.90
38500;DHT22;24269;51.894;4.622;2022-11-15T00:03:44;8.00;99.90
38500;DHT22;24269;51.894;4.622;2022-11-15T00:06:11;8.00;99.90
38500;DHT22;24269;51.894;4.622;2022-11-15T00:08:36;8.00;99.90
38500;DHT22;24269;51.894;4.622;2022-11-15T00:11:03;8.10;99.90
38500;DHT22;24269;51.894;4.622;2022-11-15T00:13:29;8.10;99.90
38500;DHT22;24269;51.894;4.622;2022-11-15T00:15:59;8.10;99.90
38500;DHT22;24269;51.894;4.622;2022-11-15T00:18:26;8.20;99.90
38500;DHT22;24269;51.894;4.622;2022-11-15T00:20:51;8.10;99.90
38500;DHT22;24269;51.894;4.622;2022-11-15T00:23:17;8.10;99.90
38500;DHT22;24269;51.894;4.622;2022-11-15T00:25:43;8.10;99.90
38500;DHT22;24269;51.894;4.622;2022-11-15T00:28:08;8.20;99.90
38500;DHT22;24269;51.894;4.622;2022-11-15T00:30:34;8.20;99.90
38500;DHT22;24269;51.894;4.622;2022-11-15T00:33:04;8.20;99.90
38500;DHT22;24269;51.894;4.622;2022-11-15T00:35:32;8.20;99.90
38500;DHT22;24269;51.894;4.622;2022-11-15T00:37:59;8.20;99.90
38500;DHT22;24269;51.894;4.622;2022-11-15T00:40:24;8.20;99.90
38500;DHT22;24269;51.894;4.622;2022-11-15T00:42:50;8.20;99.90
38500;DHT22;24269;51.894;4.622;2022-11-15T00:45:16;8.30;99.90
38500;DHT22;24269;51.894;4.622;2022-11-15T00:47:44;8.30;99.90
38500;DHT22;24269;51.894;4.622;2022-11-15T00:50:10;8.30;99.90
38500;DHT22;24269;51.894;4.622;2022-11-15T00:52:36;8.40;99.90
38500;DHT22;24269;51.894;4.622;2022-11-15T00:55:02;8.40;99.90
38500;DHT22;24269;51.894;4.622;2022-11-15T00:57:28;8.40;99.90
38500;DHT22;24269;51.894;4.622;2022-11-15T00:59:53;8.40;99.90
38500;DHT22;24269;51.894;4.622;2022-11-15T01:02:19;8.50;99.90
38500;DHT22;24269;51.894;4.622;2022-11-15T01:04:44;8.50;99.90
38500;DHT22;24269;51.894;4.622;2022-11-15T01:07:10;8.50;99.90
38500;DHT22;24269;51.894;4.622;2022-11-15T01:09:36;8.50;99.90
38500;DHT22;24269;51.894;4.622;2022-11-15T01:12:02;8.60;99.90
38500;DHT22;24269;51.894;4.622;2022-11-15T01:14:28;8.60;99.90
38500;DHT22;24269;51.894;4.622;2022-11-15T01:16:53;8.60;99.90
38500;DHT22;24269;51.894;4.622;2022-11-15T01:19:19;8.60;99.90
38500;DHT22;24269;51.894;4.622;2022-11-15T01:21:45;8.60;99.90
38500;DHT22;24269;51.894;4.622;2022-11-15T01:24:12;8.60;99.90
38500;DHT22;24269;51.894;4.622;2022-11-15T01:26:38;8.70;99.90
38500;DHT22;24269;51.894;4.622;2022-11-15T01:29:04;8.70;99.90
38500;DHT22;24269;51.894;4.622;2022-11-15T01:31:30;8.70;99.90
38500;DHT22;24269;51.894;4.622;2022-11-15T01:33:55;8.70;99.90
38500;DHT22;24269;51.894;4.622;2022-11-15T01:36:21;8.80;99.90
38500;DHT22;24269;51.894;4.622;2022-11-15T01:38:56;8.80;99.90
38500;DHT22;24269;51.894;4.622;2022-11-15T01:41:24;8.80;99.90
38500;DHT22;24269;51.894;4.622;2022-11-15T01:46:53;8.90;99.90
38500;DHT22;24269;51.894;4.622;2022-11-15T01:49:21;8.90;99.90
38500;DHT22;24269;51.894;4.622;2022-11-15T01:51:48;9.00;99.90
38500;DHT22;24269;51.894;4.622;2022-11-15T01:54:16;9.00;99.90
38500;DHT22;24269;51.894;4.622;2022-11-15T01:56:50;9.00;99.90
38500;DHT22;24269;51.894;4.622;2022-11-15T01:59:18;9.10;99.90
38500;DHT22;24269;51.894;4.622;2022-11-15T02:01:45;9.10;99.90
38500;DHT22;24269;51.894;4.622;2022-11-15T02:04:14;9.10;99.90
38500;DHT22;24269;51.894;4.622;2022-11-15T02:06:42;9.20;99.90
38500;DHT22;24269;51.894;4.622;2022-11-15T02:09:08;9.20;99.90
38500;DHT22;24269;51.894;4.622;2022-11-15T02:11:33;9.20;99.90
38500;DHT22;24269;51.894;4.622;2022-11-15T02:14:00;9.20;99.90
38500;DHT22;24269;51.894;4.622;2022-11-15T02:19:37;9.40;99.90
38500;DHT22;24269;51.894;4.622;2022-11-15T02:32:45;9.70;99.90
38500;DHT22;24269;51.894;4.622;2022-11-15T02:35:48;9.70;99.90
38500;DHT22;24269;51.894;4.622;2022-11-15T02:38:46;9.80;99.90
38500;DHT22;24269;51.894;4.622;2022-11-15T02:41:18;9.90;99.90
38500;DHT22;24269;51.894;4.622;2022-11-15T02:43:51;10.00;99.90
38500;DHT22;24269;51.894;4.622;2022-11-15T02:46:31;10.00;99.90
38500;DHT22;24269;51.894;4.622;2022-11-15T02:49:17;10.10;99.90
38500;DHT22;24269;51.894;4.622;2022-11-15T02:51:45;10.20;99.90
38500;DHT22;24269;51.894;4.622;2022-11-15T02:54:20;10.20;99.90
38500;DHT22;24269;51.894;4.622;2022-11-15T02:56:48;10.30;99.90
38500;DHT22;24269;51.894;4.622;2022-11-15T03:02:41;10.30;99.90
38500;DHT22;24269;51.894;4.622;2022-11-15T03:05:30;10.40;99.90
38500;DHT22;24269;51.894;4.622;2022-11-15T03:08:21;10.40;99.90
38500;DHT22;24269;51.894;4.622;2022-11-15T03:13:36;10.50;99.90
38500;DHT22;24269;51.894;4.622;2022-11-15T03:18:56;10.60;99.90
38500;DHT22;24269;51.894;4.622;2022-11-15T03:21:23;10.50;99.90
38500;DHT22;24269;51.894;4.622;2022-11-15T03:23:51;10.60;99.90
38500;DHT22;24269;51.894;4.622;2022-11-15T03:26:18;10.70;99.90
38500;DHT22;24269;51.894;4.622;2022-11-15T03:28:53;10.70;99.90
38500;DHT22;24269;51.894;4.622;2022-11-15T03:31:21;10.70;99.90
38500;DHT22;24269;51.894;4.622;2022-11-15T03:34:09;10.70;99.90
38500;DHT22;24269;51.894;4.622;2022-11-15T03:36:37;10.80;99.90
38500;DHT22;24269;51.894;4.622;2022-11-15T03:39:06;10.80;99.90
38500;DHT22;24269;51.894;4.622;2022-11-15T03:44:50;10.90;99.90
38500;DHT22;24269;51.894;4.622;2022-11-15T03:47:34;10.90;99.90
38500;DHT22;24269;51.894;4.622;2022-11-15T03:50:22;11.00;99.90
38500;DHT22;24269;51.894;4.622;2022-11-15T03:52:48;11.00;99.90
38500;DHT22;24269;51.894;4.622;2022-11-15T03:55:19;11.10;99.90
38500;DHT22;24269;51.894;4.622;2022-11-15T03:57:47;11.10;99.90
38500;DHT22;24269;51.894;4.622;2022-11-15T04:00:14;11.00;99.90
38500;DHT22;24269;51.894;4.622;2022-11-15T04:02:40;11.00;99.90
38500;DHT22;24269;51.894;4.622;2022-11-15T04:05:06;11.00;99.90
38500;DHT22;24269;51.894;4.622;2022-11-15T04:07:31;11.10;99.90
38500;DHT22;24269;51.894;4.622;2022-11-15T04:09:57;11.10;99.90
38500;DHT22;24269;51.894;4.622;2022-11-15T04:12:39;11.10;99.90
38500;DHT22;24269;51.894;4.622;2022-11-15T04:17:35;11.10;99.90
38500;DHT22;24269;51.894;4.622;2022-11-15T04:20:02;11.00;99.90
38500;DHT22;24269;51.894;4.622;2022-11-15T04:22:47;11.00;99.90
38500;DHT22;24269;51.894;4.622;2022-11-15T04:25:31;11.00;99.90
38500;DHT22;24269;51.894;4.622;2022-11-15T04:27:57;11.10;99.90
38500;DHT22;24269;51.894;4.622;2022-11-15T04:30:22;11.20;99.90
38500;DHT22;24269;51.894;4.622;2022-11-15T04:32:48;11.20;99.90
38500;DHT22;24269;51.894;4.622;2022-11-15T04:35:13;11.20;99.90
38500;DHT22;24269;51.894;4.622;2022-11-15T04:37:39;11.30;99.90
38500;DHT22;24269;51.894;4.622;2022-11-15T04:40:05;11.30;99.90
38500;DHT22;24269;51.894;4.622;2022-11-15T04:42:31;11.40;99.90
38500;DHT22;24269;51.894;4.622;2022-11-15T04:44:56;11.40;99.90
38500;DHT22;24269;51.894;4.622;2022-11-15T04:47:22;11.40;99.90
38500;DHT22;24269;51.894;4.622;2022-11-15T04:49:47;11.40;99.90
38500;DHT22;24269;51.894;4.622;2022-11-15T04:52:13;11.50;99.90
38500;DHT22;24269;51.894;4.622;2022-11-15T04:54:39;11.50;99.90
38500;DHT22;24269;51.894;4.622;2022-11-15T04:57:04;11.50;99.90
38500;DHT22;24269;51.894;4.622;2022-11-15T04:59:30;11.50;99.90
38500;DHT22;24269;51.894;4.622;2022-11-15T05:01:55;11.50;99.90
38500;DHT22;24269;51.894;4.622;2022-11-15T05:04:21;11.50;99.90
38500;DHT22;24269;51.894;4.622;2022-11-15T05:06:51;11.50;99.90
38500;DHT22;24269;51.894;4.622;2022-11-15T05:09:20;11.60;99.90
38500;DHT22;24269;51.894;4.622;2022-11-15T05:11:46;11.60;99.90
38500;DHT22;24269;51.894;4.622;2022-11-15T05:14:12;11.60;99.90
38500;DHT22;24269;51.894;4.622;2022-11-15T05:16:38;11.60;99.90
38500;DHT22;24269;51.894;4.622;2022-11-15T05:19:04;11.60;99.90
38500;DHT22;24269;51.894;4.622;2022-11-15T05:21:30;11.70;99.90
38500;DHT22;24269;51.894;4.622;2022-11-15T05:23:56;11.60;99.90
38500;DHT22;24269;51.894;4.622;2022-11-15T05:26:22;11.60;99.90
38500;DHT22;24269;51.894;4.622;2022-11-15T05:28:52;11.60;99.90
38500;DHT22;24269;51.894;4.622;2022-11-15T05:31:19;11.60;99.90
38500;DHT22;24269;51.894;4.622;2022-11-15T05:33:44;11.60;99.90
38500;DHT22;24269;51.894;4.622;2022-11-15T05:36:21;11.60;99.90
38500;DHT22;24269;51.894;4.622;2022-11-15T05:38:50;11.60;99.90
38500;DHT22;24269;51.894;4.622;2022-11-15T05:41:19;11.60;99.90
38500;DHT22;24269;51.894;4.622;2022-11-15T05:43:46;11.60;99.90
38500;DHT22;24269;51.894;4.622;2022-11-15T05:46:13;11.60;99.90
38500;DHT22;24269;51.894;4.622;2022-11-15T05:48:41;11.60;99.90
38500;DHT22;24269;51.894;4.622;2022-11-15T05:51:08;11.50;99.90
38500;DHT22;24269;51.894;4.622;2022-11-15T05:53:35;11.50;99.90
38500;DHT22;24269;51.894;4.622;2022-11-15T05:56:03;11.50;99.90
38500;DHT22;24269;51.894;4.622;2022-11-15T05:58:31;11.50;99.90
38500;DHT22;24269;51.894;4.622;2022-11-15T06:00:57;11.50;99.90
38500;DHT22;24269;51.894;4.622;2022-11-15T06:03:23;11.50;99.90
38500;DHT22;24269;51.894;4.622;2022-11-15T06:05:48;11.40;99.90
38500;DHT22;24269;51.894;4.622;2022-11-15T06:08:14;11.40;99.90
38500;DHT22;24269;51.894;4.622;2022-11-15T06:10:39;11.40;99.90
38500;DHT22;24269;51.894;4.622;2022-11-15T06:13:05;11.40;99.90
38500;DHT22;24269;51.894;4.622;2022-11-15T06:15:32;11.40;99.90
38500;DHT22;24269;51.894;4.622;2022-11-15T06:17:59;11.40;99.90
38500;DHT22;24269;51.894;4.622;2022-11-15T06:20:29;11.40;99.90
38500;DHT22;24269;51.894;4.622;2022-11-15T06:23:02;11.40;99.90
38500;DHT22;24269;51.894;4.622;2022-11-15T06:25:29;11.30;99.90
38500;DHT22;24269;51.894;4.622;2022-11-15T06:27:57;11.30;99.90
38500;DHT22;24269;51.894;4.622;2022-11-15T06:30:23;11.30;99.90
38500;DHT22;24269;51.894;4.622;2022-11-15T06:32:49;11.30;99.90
38500;DHT22;24269;51.894;4.622;2022-11-15T06:35:15;11.20;99.90
38500;DHT22;24269;51.894;4.622;2022-11-15T06:37:41;11.20;99.90
38500;DHT22;24269;51.894;4.622;2022-11-15T06:40:08;11.20;99.90
38500;DHT22;24269;51.894;4.622;2022-11-15T06:42:33;11.10;99.90
38500;DHT22;24269;51.894;4.622;2022-11-15T06:44:59;11.10;99.90
38500;DHT22;24269;51.894;4.622;2022-11-15T06:47:25;11.10;99.90
38500;DHT22;24269;51.894;4.622;2022-11-15T06:49:50;11.10;99.90
38500;DHT22;24269;51.894;4.622;2022-11-15T06:52:16;11.10;99.90
38500;DHT22;24269;51.894;4.622;2022-11-15T06:54:44;11.10;99.90
38500;DHT22;24269;51.894;4.622;2022-11-15T06:57:10;11.10;99.90
38500;DHT22;24269;51.894;4.622;2022-11-15T06:59:36;11.10;99.90
38500;DHT22;24269;51.894;4.622;2022-11-15T07:02:01;11.10;99.90
38500;DHT22;24269;51.894;4.622;2022-11-15T07:04:27;11.00;99.90
38500;DHT22;24269;51.894;4.622;2022-11-15T07:06:53;11.10;99.90
38500;DHT22;24269;51.894;4.622;2022-11-15T07:09:18;11.10;99.90
38500;DHT22;24269;51.894;4.622;2022-11-15T07:11:44;11.20;99.90
38500;DHT22;24269;51.894;4.622;2022-11-15T07:14:12;11.10;99.90
38500;DHT22;24269;51.894;4.622;2022-11-15T07:16:38;11.10;99.90
38500;DHT22;24269;51.894;4.622;2022-11-15T07:19:05;11.10;99.90
38500;DHT22;24269;51.894;4.622;2022-11-15T07:21:32;11.20;99.90
38500;DHT22;24269;51.894;4.622;2022-11-15T07:23:58;11.10;99.90
38500;DHT22;24269;51.894;4.622;2022-11-15T07:26:24;11.20;99.90
38500;DHT22;24269;51.894;4.622;2022-11-15T07:28:49;11.20;99.90
38500;DHT22;24269;51.894;4.622;2022-11-15T07:31:15;11.10;99.90
38500;DHT22;24269;51.894;4.622;2022-11-15T07:33:41;11.10;99.90
38500;DHT22;24269;51.894;4.622;2022-11-15T07:36:07;11.10;99.90
38500;DHT22;24269;51.894;4.622;2022-11-15T07:38:34;11.00;99.90
38500;DHT22;24269;51.894;4.622;2022-11-15T07:41:02;10.90;99.90
38500;DHT22;24269;51.894;4.622;2022-11-15T07:43:37;10.90;99.90
38500;DHT22;24269;51.894;4.622;2022-11-15T07:46:07;10.80;99.90
38500;DHT22;24269;51.894;4.622;2022-11-15T07:48:37;10.90;99.90
38500;DHT22;24269;51.894;4.622;2022-11-15T07:51:06;10.80;99.90
38500;DHT22;24269;51.894;4.622;2022-11-15T07:53:32;10.80;99.90
38500;DHT22;24269;51.894;4.622;2022-11-15T07:55:57;10.80;99.90
38500;DHT22;24269;51.894;4.622;2022-11-15T07:58:23;10.90;99.90
38500;DHT22;24269;51.894;4.622;2022-11-15T08:00:49;10.80;99.90
38500;DHT22;24269;51.894;4.622;2022-11-15T08:03:15;10.70;99.90
38500;DHT22;24269;51.894;4.622;2022-11-15T08:05:42;10.70;99.90
38500;DHT22;24269;51.894;4.622;2022-11-15T08:08:10;10.70;99.90
38500;DHT22;24269;51.894;4.622;2022-11-15T08:10:37;10.70;99.90
38500;DHT22;24269;51.894;4.622;2022-11-15T08:13:11;10.70;99.90
38500;DHT22;24269;51.894;4.622;2022-11-15T08:15:37;10.70;99.90
38500;DHT22;24269;51.894;4.622;2022-11-15T08:18:11;10.80;99.90
38500;DHT22;24269;51.894;4.622;2022-11-15T08:20:38;10.80;99.90
38500;DHT22;24269;51.894;4.622;2022-11-15T08:23:05;10.80;99.90
38500;DHT22;24269;51.894;4.622;2022-11-15T08:25:32;10.90;99.90
38500;DHT22;24269;51.894;4.622;2022-11-15T08:28:02;11.00;99.90
38500;DHT22;24269;51.894;4.622;2022-11-15T08:30:29;11.10;99.90
38500;DHT22;24269;51.894;4.622;2022-11-15T08:32:57;11.10;99.90
38500;DHT22;24269;51.894;4.622;2022-11-15T08:35:24;11.20;99.90
38500;DHT22;24269;51.894;4.622;2022-11-15T08:37:52;11.20;99.90
38500;DHT22;24269;51.894;4.622;2022-11-15T08:40:19;11.10;99.90
38500;DHT22;24269;51.894;4.622;2022-11-15T08:42:47;11.20;99.90
38500;DHT22;24269;51.894;4.622;2022-11-15T08:45:14;11.10;99.90
38500;DHT22;24269;51.894;4.622;2022-11-15T08:47:40;11.10;99.90
38500;DHT22;24269;51.894;4.622;2022-11-15T08:50:06;11.10;99.90
38500;DHT22;24269;51.894;4.622;2022-11-15T08:52:32;11.10;99.90
38500;DHT22;24269;51.894;4.622;2022-11-15T08:54:58;11.20;99.90
38500;DHT22;24269;51.894;4.622;2022-11-15T08:57:24;11.30;99.90
38500;DHT22;24269;51.894;4.622;2022-11-15T08:59:50;11.30;99.90
38500;DHT22;24269;51.894;4.622;2022-11-15T09:02:17;11.40;99.90
38500;DHT22;24269;51.894;4.622;2022-11-15T09:04:43;11.50;99.90
38500;DHT22;24269;51.894;4.622;2022-11-15T09:07:10;11.50;99.90
38500;DHT22;24269;51.894;4.622;2022-11-15T09:09:37;11.60;99.90
38500;DHT22;24269;51.894;4.622;2022-11-15T09:12:07;11.60;99.90
38500;DHT22;24269;51.894;4.622;2022-11-15T09:14:33;11.70;99.90
38500;DHT22;24269;51.894;4.622;2022-11-15T09:17:00;11.70;99.90
38500;DHT22;24269;51.894;4.622;2022-11-15T09:19:26;11.70;99.90
38500;DHT22;24269;51.894;4.622;2022-11-15T09:21:52;11.70;99.90
38500;DHT22;24269;51.894;4.622;2022-11-15T09:24:18;11.80;99.90
38500;DHT22;24269;51.894;4.622;2022-11-15T09:26:43;11.80;99.90
38500;DHT22;24269;51.894;4.622;2022-11-15T09:29:09;11.90;99.90
38500;DHT22;24269;51.894;4.622;2022-11-15T09:31:35;11.90;99.90
38500;DHT22;24269;51.894;4.622;2022-11-15T09:34:01;12.00;99.90
38500;DHT22;24269;51.894;4.622;2022-11-15T09:36:26;12.00;99.90
38500;DHT22;24269;51.894;4.622;2022-11-15T09:38:52;12.00;99.90
38500;DHT22;24269;51.894;4.622;2022-11-15T09:41:48;12.10;99.90
38500;DHT22;24269;51.894;4.622;2022-11-15T09:49:59;12.20;99.90
38500;DHT22;24269;51.894;4.622;2022-11-15T09:52:25;12.30;99.90
38500;DHT22;24269;51.894;4.622;2022-11-15T09:54:52;12.50;99.90
38500;DHT22;24269;51.894;4.622;2022-11-15T10:03:00;13.00;99.90
38500;DHT22;24269;51.894;4.622;2022-11-15T10:05:30;12.80;99.90
38500;DHT22;24269;51.894;4.622;2022-11-15T10:10:44;12.70;99.90
38500;DHT22;24269;51.894;4.622;2022-11-15T10:13:37;12.80;99.90
38500;DHT22;24269;51.894;4.622;2022-11-15T10:16:31;12.90;99.90
38500;DHT22;24269;51.894;4.622;2022-11-15T10:19:19;13.00;99.90
38500;DHT22;24269;51.894;4.622;2022-11-15T10:24:42;13.40;99.90
38500;DHT22;24269;51.894;4.622;2022-11-15T10:27:20;13.50;99.90
38500;DHT22;24269;51.894;4.622;2022-11-15T10:29:49;13.60;99.90
38500;DHT22;24269;51.894;4.622;2022-11-15T10:32:18;13.50;99.90
38500;DHT22;24269;51.894;4.622;2022-11-15T10:34:46;13.40;99.90
38500;DHT22;24269;51.894;4.622;2022-11-15T10:37:12;13.50;99.90
38500;DHT22;24269;51.894;4.622;2022-11-15T10:39:38;13.60;99.90
38500;DHT22;24269;51.894;4.622;2022-11-15T10:42:28;13.80;99.90
38500;DHT22;24269;51.894;4.622;2022-11-15T10:44:54;13.80;99.90
38500;DHT22;24269;51.894;4.622;2022-11-15T10:47:24;13.80;99.90
38500;DHT22;24269;51.894;4.622;2022-11-15T10:52:58;13.70;99.90
38500;DHT22;24269;51.894;4.622;2022-11-15T10:55:30;13.80;99.90
38500;DHT22;24269;51.894;4.622;2022-11-15T11:03:36;13.30;99.90
38500;DHT22;24269;51.894;4.622;2022-11-15T11:06:15;13.30;99.90
38500;DHT22;24269;51.894;4.622;2022-11-15T11:08:57;13.30;99.90
38500;DHT22;24269;51.894;4.622;2022-11-15T11:11:47;13.40;99.90
38500;DHT22;24269;51.894;4.622;2022-11-15T11:14:23;13.30;99.90
38500;DHT22;24269;51.894;4.622;2022-11-15T11:17:23;13.40;99.90
38500;DHT22;24269;51.894;4.622;2022-11-15T11:25:30;13.40;99.90
38500;DHT22;24269;51.894;4.622;2022-11-15T11:33:16;13.40;99.90
38500;DHT22;24269;51.894;4.622;2022-11-15T11:44:24;13.40;99.90
38500;DHT22;24269;51.894;4.622;2022-11-15T11:47:03;13.50;99.90
38500;DHT22;24269;51.894;4.622;2022-11-15T11:49:50;13.60;99.90
38500;DHT22;24269;51.894;4.622;2022-11-15T11:55:16;13.80;99.90
38500;DHT22;24269;51.894;4.622;2022-11-15T11:57:49;13.80;99.90
38500;DHT22;24269;51.894;4.622;2022-11-15T12:00:23;13.90;99.90
38500;DHT22;24269;51.894;4.622;2022-11-15T12:03:03;13.90;99.90
38500;DHT22;24269;51.894;4.622;2022-11-15T12:05:44;13.90;99.90
38500;DHT22;24269;51.894;4.622;2022-11-15T12:11:12;14.10;99.90
38500;DHT22;24269;51.894;4.622;2022-11-15T12:13:39;14.20;99.90
38500;DHT22;24269;51.894;4.622;2022-11-15T12:16:33;14.30;99.90
38500;DHT22;24269;51.894;4.622;2022-11-15T12:19:02;14.40;99.90
38500;DHT22;24269;51.894;4.622;2022-11-15T12:21:51;14.40;99.90
38500;DHT22;24269;51.894;4.622;2022-11-15T12:24:27;14.50;99.90
38500;DHT22;24269;51.894;4.622;2022-11-15T12:29:48;14.40;99.90
38500;DHT22;24269;51.894;4.622;2022-11-15T12:32:31;14.30;99.90
38500;DHT22;24269;51.894;4.622;2022-11-15T12:35:02;14.20;99.90
38500;DHT22;24269;51.894;4.622;2022-11-15T12:42:56;14.00;99.90
38500;DHT22;24269;51.894;4.622;2022-11-15T12:45:43;13.90;99.90
38500;DHT22;24269;51.894;4.622;2022-11-15T12:50:53;13.80;99.90
38500;DHT22;24269;51.894;4.622;2022-11-15T12:53:30;13.70;99.90
38500;DHT22;24269;51.894;4.622;2022-11-15T12:58:45;13.60;99.90
38500;DHT22;24269;51.894;4.622;2022-11-15T13:07:04;13.50;99.90
38500;DHT22;24269;51.894;4.622;2022-11-15T13:15:30;13.60;99.90
38500;DHT22;24269;51.894;4.622;2022-11-15T13:17:50;13.60;99.90
38500;DHT22;24269;51.894;4.622;2022-11-15T13:20:27;13.60;99.90
38500;DHT22;24269;51.894;4.622;2022-11-15T13:31:01;13.40;99.90
38500;DHT22;24269;51.894;4.622;2022-11-15T13:33:37;13.40;99.90
38500;DHT22;24269;51.894;4.622;2022-11-15T13:36:22;13.30;99.90
38500;DHT22;24269;51.894;4.622;2022-11-15T13:39:01;13.20;99.90
38500;DHT22;24269;51.894;4.622;2022-11-15T13:41:30;13.20;99.90
38500;DHT22;24269;51.894;4.622;2022-11-15T13:43:58;13.20;99.90
38500;DHT22;24269;51.894;4.622;2022-11-15T13:46:30;13.20;99.90
38500;DHT22;24269;51.894;4.622;2022-11-15T13:49:00;13.20;99.90
38500;DHT22;24269;51.894;4.622;2022-11-15T13:56:53;13.10;99.90
38500;DHT22;24269;51.894;4.622;2022-11-15T13:59:28;13.00;99.90
38500;DHT22;24269;51.894;4.622;2022-11-15T14:01:57;13.00;99.90
38500;DHT22;24269;51.894;4.622;2022-11-15T14:04:25;13.00;99.90
38500;DHT22;24269;51.894;4.622;2022-11-15T14:06:59;13.00;99.90
38500;DHT22;24269;51.894;4.622;2022-11-15T14:09:39;13.00;99.90
38500;DHT22;24269;51.894;4.622;2022-11-15T14:12:30;13.00;99.90
38500;DHT22;24269;51.894;4.622;2022-11-15T14:14:59;13.00;99.90
38500;DHT22;24269;51.894;4.622;2022-11-15T14:19:57;13.00;99.90
38500;DHT22;24269;51.894;4.622;2022-11-15T14:22:26;13.10;99.90
38500;DHT22;24269;51.894;4.622;2022-11-15T14:27:42;13.00;99.90
38500;DHT22;24269;51.894;4.622;2022-11-15T14:30:18;13.00;99.90
38500;DHT22;24269;51.894;4.622;2022-11-15T14:32:45;13.10;99.90
38500;DHT22;24269;51.894;4.622;2022-11-15T14:35:16;13.00;99.90
38500;DHT22;24269;51.894;4.622;2022-11-15T14:37:42;13.00;99.90
38500;DHT22;24269;51.894;4.622;2022-11-15T14:40:15;13.00;99.90
38500;DHT22;24269;51.894;4.622;2022-11-15T14:42:44;13.00;99.90
38500;DHT22;24269;51.894;4.622;2022-11-15T14:45:18;13.00;99.90
38500;DHT22;24269;51.894;4.622;2022-11-15T14:47:45;13.10;99.90
38500;DHT22;24269;51.894;4.622;2022-11-15T14:50:21;13.10;99.90
38500;DHT22;24269;51.894;4.622;2022-11-15T14:52:57;13.10;99.90
38500;DHT22;24269;51.894;4.622;2022-11-15T14:55:28;13.00;99.90
38500;DHT22;24269;51.894;4.622;2022-11-15T14:57:57;13.10;99.90
38500;DHT22;24269;51.894;4.622;2022-11-15T15:00:24;13.10;99.90
38500;DHT22;24269;51.894;4.622;2022-11-15T15:02:53;13.00;99.90
38500;DHT22;24269;51.894;4.622;2022-11-15T15:05:21;13.00;99.90
38500;DHT22;24269;51.894;4.622;2022-11-15T15:07:47;13.00;99.90
38500;DHT22;24269;51.894;4.622;2022-11-15T15:10:15;13.10;99.90
38500;DHT22;24269;51.894;4.622;2022-11-15T15:12:42;13.10;99.90
38500;DHT22;24269;51.894;4.622;2022-11-15T15:15:24;13.10;99.90
38500;DHT22;24269;51.894;4.622;2022-11-15T15:17:51;13.10;99.90
38500;DHT22;24269;51.894;4.622;2022-11-15T15:20:18;13.10;99.90
38500;DHT22;24269;51.894;4.622;2022-11-15T15:22:44;13.10;99.90
38500;DHT22;24269;51.894;4.622;2022-11-15T15:25:22;13.10;99.90
38500;DHT22;24269;51.894;4.622;2022-11-15T15:27:49;13.10;99.90
38500;DHT22;24269;51.894;4.622;2022-11-15T15:30:15;13.10;99.90
38500;DHT22;24269;51.894;4.622;2022-11-15T15:32:40;13.10;99.90
38500;DHT22;24269;51.894;4.622;2022-11-15T15:35:07;13.10;99.90
38500;DHT22;24269;51.894;4.622;2022-11-15T15:37:35;13.10;99.90
38500;DHT22;24269;51.894;4.622;2022-11-15T15:40:01;13.10;99.90
38500;DHT22;24269;51.894;4.622;2022-11-15T15:42:27;13.10;99.90
38500;DHT22;24269;51.894;4.622;2022-11-15T15:44:52;13.00;99.90
38500;DHT22;24269;51.894;4.622;2022-11-15T15:47:22;12.90;99.90
38500;DHT22;24269;51.894;4.622;2022-11-15T15:49:49;12.90;99.90
38500;DHT22;24269;51.894;4.622;2022-11-15T15:52:16;12.80;99.90
38500;DHT22;24269;51.894;4.622;2022-11-15T15:54:42;12.80;99.90
38500;DHT22;24269;51.894;4.622;2022-11-15T15:57:08;12.80;99.90
38500;DHT22;24269;51.894;4.622;2022-11-15T15:59:36;12.70;99.90
38500;DHT22;24269;51.894;4.622;2022-11-15T16:02:02;12.60;99.90
38500;DHT22;24269;51.894;4.622;2022-11-15T16:04:27;12.50;99.90
38500;DHT22;24269;51.894;4.622;2022-11-15T16:07:01;12.50;99.90
38500;DHT22;24269;51.894;4.622;2022-11-15T16:09:27;12.40;99.90
38500;DHT22;24269;51.894;4.622;2022-11-15T16:12:19;12.40;99.90
38500;DHT22;24269;51.894;4.622;2022-11-15T16:14:44;12.30;99.90
38500;DHT22;24269;51.894;4.622;2022-11-15T16:17:18;12.30;99.90
38500;DHT22;24269;51.894;4.622;2022-11-15T16:19:44;12.30;99.90
38500;DHT22;24269;51.894;4.622;2022-11-15T16:22:10;12.20;99.90
38500;DHT22;24269;51.894;4.622;2022-11-15T16:24:36;12.20;99.90
38500;DHT22;24269;51.894;4.622;2022-11-15T16:27:02;12.10;99.90
38500;DHT22;24269;51.894;4.622;2022-11-15T16:29:27;12.10;99.90
38500;DHT22;24269;51.894;4.622;2022-11-15T16:31:53;12.10;99.90
38500;DHT22;24269;51.894;4.622;2022-11-15T16:34:19;12.10;99.90
38500;DHT22;24269;51.894;4.622;2022-11-15T16:36:44;12.00;99.90
38500;DHT22;24269;51.894;4.622;2022-11-15T16:39:13;12.00;99.90
38500;DHT22;24269;51.894;4.622;2022-11-15T16:41:40;12.00;99.90
38500;DHT22;24269;51.894;4.622;2022-11-15T16:44:08;12.00;99.90
38500;DHT22;24269;51.894;4.622;2022-11-15T16:46:34;11.90;99.90
38500;DHT22;24269;51.894;4.622;2022-11-15T16:48:59;11.90;99.90
38500;DHT22;24269;51.894;4.622;2022-11-15T16:51:25;11.90;99.90
38500;DHT22;24269;51.894;4.622;2022-11-15T16:53:51;11.90;99.90
38500;DHT22;24269;51.894;4.622;2022-11-15T16:56:30;11.90;99.90
38500;DHT22;24269;51.894;4.622;2022-11-15T16:58:56;11.90;99.90
38500;DHT22;24269;51.894;4.622;2022-11-15T17:01:36;11.90;99.90
38500;DHT22;24269;51.894;4.622;2022-11-15T17:04:16;11.90;99.90
38500;DHT22;24269;51.894;4.622;2022-11-15T17:06:43;11.90;99.90
38500;DHT22;24269;51.894;4.622;2022-11-15T17:09:20;11.80;99.90
38500;DHT22;24269;51.894;4.622;2022-11-15T17:11:49;11.80;99.90
38500;DHT22;24269;51.894;4.622;2022-11-15T17:14:15;11.80;99.90
38500;DHT22;24269;51.894;4.622;2022-11-15T17:16:41;11.80;99.90
38500;DHT22;24269;51.894;4.622;2022-11-15T17:19:13;11.70;99.90
38500;DHT22;24269;51.894;4.622;2022-11-15T17:21:39;11.80;99.90
38500;DHT22;24269;51.894;4.622;2022-11-15T17:24:05;11.80;99.90
38500;DHT22;24269;51.894;4.622;2022-11-15T17:26:31;11.80;99.90
38500;DHT22;24269;51.894;4.622;2022-11-15T17:28:56;11.80;99.90
38500;DHT22;24269;51.894;4.622;2022-11-15T17:31:23;11.80;99.90
38500;DHT22;24269;51.894;4.622;2022-11-15T17:33:49;11.80;99.90
38500;DHT22;24269;51.894;4.622;2022-11-15T17:36:15;11.80;99.90
38500;DHT22;24269;51.894;4.622;2022-11-15T17:38:41;11.70;99.90
38500;DHT22;24269;51.894;4.622;2022-11-15T17:41:10;11.70;99.90
38500;DHT22;24269;51.894;4.622;2022-11-15T17:43:37;11.70;99.90
38500;DHT22;24269;51.894;4.622;2022-11-15T17:46:12;11.70;99.90
38500;DHT22;24269;51.894;4.622;2022-11-15T17:48:38;11.70;99.90
38500;DHT22;24269;51.894;4.622;2022-11-15T17:51:06;11.70;99.90
38500;DHT22;24269;51.894;4.622;2022-11-15T17:53:36;11.70;99.90